Time;durP1;ratioP1;P1;durP2;ratioP2;P2;SDS_P1;SDS_P2;PMS_P1;PMS_P2;Temp;Humidity;BMP_temperature;BMP_pressure;BME280_temperature;BME280_humidity;BME280_pressure;Samples;Min_cycle;Max_cycle;Signal;HPM_P1;HPM_P2
2022/05/09 00:00:33;;;;;;;2.65;1.27;;;;;;;8.80;100.00;102566.66;6246317;28;20050;-71
2022/05/09 00:03:34;;;;;;;6.35;1.95;;;;;;;8.76;100.00;102565.84;6247195;28;20057;-70
2022/05/09 00:06:36;;;;;;;5.53;1.40;;;;;;;8.77;100.00;102570.22;6246746;28;20060;-70
2022/05/09 00:09:37;;;;;;;7.10;2.40;;;;;;;8.78;100.00;102574.56;6246356;28;20052;-70
2022/05/09 00:12:39;;;;;;;3.15;1.20;;;;;;;8.69;100.00;102573.84;6246251;28;20053;-70
2022/05/09 00:15:41;;;;;;;3.25;1.52;;;;;;;8.64;100.00;102563.44;6246468;28;20052;-70
2022/05/09 00:18:43;;;;;;;8.25;1.67;;;;;;;8.46;100.00;102561.09;6246624;28;20046;-70
2022/05/09 00:21:45;;;;;;;5.65;1.27;;;;;;;8.37;100.00;102573.44;6245871;28;20049;-70
2022/05/09 00:24:46;;;;;;;5.05;1.20;;;;;;;8.34;100.00;102572.59;6246665;28;20485;-70
2022/05/09 00:27:48;;;;;;;2.40;1.20;;;;;;;8.35;100.00;102569.06;6246419;28;20056;-70
2022/05/09 00:30:51;;;;;;;7.25;1.38;;;;;;;8.41;100.00;102568.19;6245950;28;20417;-70
2022/05/09 00:33:52;;;;;;;2.72;1.48;;;;;;;8.41;100.00;102569.03;6246171;28;20051;-70
2022/05/09 00:36:55;;;;;;;4.32;1.23;;;;;;;8.45;100.00;102570.72;6246174;28;20402;-70
2022/05/09 00:39:56;;;;;;;4.60;1.20;;;;;;;8.40;100.00;102569.91;6245956;28;20052;-71
2022/05/09 00:42:58;;;;;;;8.88;1.65;;;;;;;8.30;100.00;102574.38;6246088;28;20049;-70
2022/05/09 00:46:02;;;;;;;2.22;1.13;;;;;;;8.25;100.00;102570.09;6246294;28;20053;-70
2022/05/09 00:49:10;;;;;;;3.95;1.40;;;;;;;8.19;100.00;102573.69;6246167;28;20096;-70
2022/05/09 00:52:19;;;;;;;4.50;1.33;;;;;;;8.15;100.00;102574.63;6246747;28;20050;-71
2022/05/09 00:55:24;;;;;;;3.58;1.27;;;;;;;8.13;100.00;102576.41;6251084;28;20056;-70
2022/05/09 00:58:28;;;;;;;2.70;1.38;;;;;;;8.04;100.00;102574.78;6250892;28;20052;-70
2022/05/09 01:01:31;;;;;;;4.60;2.10;;;;;;;7.99;100.00;102575.69;6250375;28;20171;-70
2022/05/09 01:04:39;;;;;;;3.63;1.40;;;;;;;7.90;100.00;102576.69;6250309;28;20045;-70
2022/05/09 01:07:40;;;;;;;2.13;0.90;;;;;;;7.82;100.00;102581.16;6250131;28;20056;-71
2022/05/09 01:10:42;;;;;;;6.35;1.38;;;;;;;7.79;100.00;102581.19;6249870;28;20041;-71
2022/05/09 01:13:49;;;;;;;6.90;1.52;;;;;;;7.78;100.00;102572.47;6250381;28;20045;-70
2022/05/09 01:16:52;;;;;;;9.13;1.20;;;;;;;7.66;100.00;102571.75;6250411;28;20053;-71
2022/05/09 01:19:55;;;;;;;2.55;1.00;;;;;;;7.65;100.00;102567.41;6249758;28;20045;-70
2022/05/09 01:22:59;;;;;;;5.72;1.90;;;;;;;7.68;100.00;102568.25;6250135;28;20056;-70
2022/05/09 01:26:00;;;;;;;3.25;1.38;;;;;;;7.61;100.00;102572.66;6250089;28;20053;-70
2022/05/09 01:29:09;;;;;;;8.32;1.50;;;;;;;7.53;100.00;102566.66;6250411;28;20045;-71
2022/05/09 01:32:12;;;;;;;6.68;1.38;;;;;;;7.53;100.00;102564.03;6249400;28;20493;-71
2022/05/09 01:35:20;;;;;;;4.32;1.25;;;;;;;7.51;100.00;102557.97;6250252;28;20045;-71
2022/05/09 01:38:29;;;;;;;6.18;1.58;;;;;;;7.49;100.00;102564.97;6249837;28;20072;-70
2022/05/09 01:41:36;;;;;;;;;;;;;;;7.49;100.00;102566.72;6249650;28;20402;-71
2022/05/09 01:44:38;;;;;;;3.40;1.15;;;;;;;7.46;100.00;102562.41;6249952;28;20284;-70
2022/05/09 01:50:59;;;;;;;3.13;1.60;;;;;;;7.39;100.00;102568.56;6248724;28;20041;-70
2022/05/09 01:54:01;;;;;;;4.40;1.63;;;;;;;7.28;100.00;102576.53;6249197;28;20045;-70
2022/05/09 01:57:03;;;;;;;6.30;1.63;;;;;;;7.22;100.00;102563.53;6249380;28;20050;-71
2022/05/09 02:00:06;;;;;;;3.22;1.42;;;;;;;7.19;100.00;102562.69;6248728;28;20045;-71
2022/05/09 02:03:08;;;;;;;3.33;1.17;;;;;;;7.15;100.00;102566.22;6246279;28;20057;-70
2022/05/09 02:06:09;;;;;;;4.63;1.50;;;;;;;7.13;100.00;102568.84;6247310;28;20045;-71
2022/05/09 02:09:13;;;;;;;2.70;1.00;;;;;;;7.11;100.00;102567.97;6247682;28;20049;-71
2022/05/09 02:12:16;;;;;;;4.25;1.50;;;;;;;7.03;100.00;102565.44;6247101;28;20041;-69
2022/05/09 02:15:17;;;;;;;2.90;1.88;;;;;;;6.98;100.00;102563.75;6248139;28;20046;-73
2022/05/09 02:18:18;;;;;;;11.43;1.50;;;;;;;6.91;100.00;102559.47;6248458;28;20053;-70
2022/05/09 02:21:20;;;;;;;3.05;1.30;;;;;;;6.85;100.00;102566.47;6248507;28;20064;-71
2022/05/09 02:24:23;;;;;;;2.13;1.23;;;;;;;6.86;100.00;102562.13;6248999;28;20056;-70
2022/05/09 02:27:24;;;;;;;3.25;1.20;;;;;;;6.82;100.00;102574.34;6249274;28;20053;-70
2022/05/09 02:30:26;;;;;;;7.43;1.63;;;;;;;6.77;100.00;102568.28;6248233;28;20489;-74
2022/05/09 02:33:27;;;;;;;5.95;1.40;;;;;;;6.80;100.00;102572.63;6248699;28;20052;-70
2022/05/09 02:36:28;;;;;;;4.55;1.17;;;;;;;6.73;100.00;102569.19;6248740;28;20057;-71
2022/05/09 02:39:31;;;;;;;4.43;1.52;;;;;;;6.72;100.00;102558.75;6244463;28;20056;-70
2022/05/09 02:42:32;;;;;;;6.47;1.45;;;;;;;6.65;100.00;102557.94;6247018;28;20455;-73
2022/05/09 02:45:34;;;;;;;2.15;1.13;;;;;;;6.64;100.00;102555.34;6248122;28;20046;-71
2022/05/09 02:48:37;;;;;;;3.22;1.35;;;;;;;6.63;100.00;102561.44;6248329;28;20049;-70
2022/05/09 02:51:38;;;;;;;3.40;1.38;;;;;;;6.63;100.00;102557.06;6247384;28;20050;-71
2022/05/09 02:54:41;;;;;;;1.95;1.42;;;;;;;6.65;100.00;102568.38;6248288;28;20062;-70
2022/05/09 02:57:42;;;;;;;2.70;1.25;;;;;;;6.63;100.00;102570.13;6248017;28;20045;-73
2022/05/09 03:00:44;;;;;;;5.78;1.33;;;;;;;6.62;100.00;102557.94;6247287;28;20416;-70
2022/05/09 03:07:04;;;;;;;1.63;1.00;;;;;;;6.53;100.00;102555.41;6247720;28;20424;-71
2022/05/09 03:10:08;;;;;;;3.45;1.42;;;;;;;6.50;100.00;102556.31;6247029;28;20046;-71
2022/05/09 03:13:12;;;;;;;4.45;1.42;;;;;;;6.48;100.00;102551.97;6247049;28;20045;-71
2022/05/09 03:16:13;;;;;;;6.22;1.80;;;;;;;6.41;100.00;102551.16;6245495;28;20046;-69
2022/05/09 03:19:15;;;;;;;6.35;2.13;;;;;;;6.31;100.00;102550.34;6247780;28;20053;-70
2022/05/09 03:22:17;;;;;;;3.65;1.17;;;;;;;6.26;100.00;102541.66;6246866;28;20053;-71
2022/05/09 03:25:20;;;;;;;3.40;1.20;;;;;;;6.35;100.00;102544.22;6247704;28;20057;-70
2022/05/09 03:28:24;;;;;;;3.33;1.63;;;;;;;6.31;100.00;102547.75;6247412;28;20119;-70
2022/05/09 03:31:25;;;;;;;5.18;1.50;;;;;;;6.28;100.00;102549.50;6246623;28;20110;-70
2022/05/09 03:34:26;;;;;;;6.20;1.98;;;;;;;6.26;100.00;102546.88;6246830;28;20057;-71
2022/05/09 03:37:29;;;;;;;3.05;1.60;;;;;;;6.28;100.00;102550.38;6246977;28;20058;-70
2022/05/09 03:40:32;;;;;;;6.45;1.33;;;;;;;6.30;100.00;102548.59;6246710;28;20053;-70
2022/05/09 03:43:33;;;;;;;2.92;1.48;;;;;;;6.27;100.00;102543.41;6247222;28;20045;-70
2022/05/09 03:46:34;;;;;;;3.78;1.88;;;;;;;6.15;100.00;102540.88;6247260;28;20056;-71
2022/05/09 03:49:36;;;;;;;8.73;2.63;;;;;;;6.05;100.00;102540.06;6247028;28;20053;-71
2022/05/09 03:52:37;;;;;;;7.50;1.23;;;;;;;6.05;100.00;102545.28;6246747;28;20049;-70
2022/05/09 03:55:40;;;;;;;3.90;1.77;;;;;;;5.98;100.00;102543.56;6247018;28;20057;-70
2022/05/09 03:58:42;;;;;;;6.53;1.70;;;;;;;6.01;100.00;102537.47;6246793;28;20045;-70
2022/05/09 04:01:43;;;;;;;8.45;2.10;;;;;;;6.01;100.00;102542.72;6245901;28;20057;-70
2022/05/09 04:04:45;;;;;;;3.03;1.23;;;;;;;6.07;100.00;102534.81;6247175;28;20100;-70
2022/05/09 04:07:48;;;;;;;3.65;1.75;;;;;;;6.10;100.00;102540.91;6246838;28;20107;-71
2022/05/09 04:10:54;;;;;;;5.22;1.88;;;;;;;6.15;100.00;102538.28;6246017;28;20509;-70
2022/05/09 04:13:56;;;;;;;4.00;1.42;;;;;;;6.11;100.00;102539.16;6246798;28;20136;-70
2022/05/09 04:16:56;;;;;;;5.93;1.65;;;;;;;6.08;100.00;102537.41;6246582;28;20467;-70
2022/05/09 04:19:57;;;;;;;6.70;1.42;;;;;;;6.03;100.00;102535.72;6246252;28;20073;-70
2022/05/09 04:22:59;;;;;;;2.08;1.45;;;;;;;6.01;100.00;102540.09;6246445;28;20056;-71
2022/05/09 04:26:02;;;;;;;3.85;1.55;;;;;;;6.05;100.00;102540.06;6246350;28;20062;-70
2022/05/09 04:29:04;;;;;;;13.98;1.88;;;;;;;6.07;100.00;102542.66;6251101;28;20382;-70
2022/05/09 04:32:07;;;;;;;2.70;1.45;;;;;;;6.06;100.00;102543.53;6250697;28;20520;-70
2022/05/09 04:35:11;;;;;;;3.88;1.77;;;;;;;6.05;100.00;102539.22;6251641;28;20053;-70
2022/05/09 04:38:18;;;;;;;2.28;1.30;;;;;;;6.02;100.00;102541.81;6251532;28;20493;-70
2022/05/09 04:41:22;;;;;;;2.05;1.23;;;;;;;6.04;100.00;102543.56;6250655;28;20485;-71
2022/05/09 04:44:23;;;;;;;3.78;1.17;;;;;;;6.09;100.00;102540.94;6251158;28;20099;-70
2022/05/09 04:47:24;;;;;;;2.85;1.40;;;;;;;6.18;100.00;102538.25;6251168;28;20056;-70
2022/05/09 04:50:28;;;;;;;3.92;1.67;;;;;;;6.30;100.00;102538.16;6250356;28;20049;-71
2022/05/09 04:53:29;;;;;;;10.15;1.27;;;;;;;6.37;100.00;102532.91;6251202;28;20516;-70
2022/05/09 04:56:32;;;;;;;4.28;1.40;;;;;;;6.38;100.00;102535.50;6251020;28;20057;-70
2022/05/09 04:59:33;;;;;;;9.20;1.60;;;;;;;6.40;100.00;102541.56;6250976;28;20052;-70
2022/05/09 05:02:34;;;;;;;2.97;1.42;;;;;;;6.44;100.00;102537.19;6248788;28;20053;-70
2022/05/09 05:05:36;;;;;;;5.47;1.27;;;;;;;6.44;100.00;102532.84;6250964;28;20061;-73
2022/05/09 05:08:37;;;;;;;2.03;1.42;;;;;;;6.51;100.00;102534.53;6249992;28;20046;-70
2022/05/09 05:11:40;;;;;;;2.13;1.40;;;;;;;6.59;100.00;102537.09;6250012;28;20046;-70
2022/05/09 05:14:41;;;;;;;4.53;1.65;;;;;;;6.67;100.00;102535.25;6250280;28;20057;-71
2022/05/09 05:17:42;;;;;;;2.58;1.45;;;;;;;6.75;100.00;102536.06;6250198;28;20406;-70
2022/05/09 05:20:44;;;;;;;2.03;1.42;;;;;;;6.85;100.00;102531.63;6249711;28;20038;-70
2022/05/09 05:23:47;;;;;;;2.65;1.38;;;;;;;6.93;100.00;102532.44;6250217;28;20053;-73
2022/05/09 05:26:49;;;;;;;5.40;1.60;;;;;;;6.99;100.00;102526.25;6250369;28;20108;-71
2022/05/09 05:29:53;;;;;;;2.58;1.48;;;;;;;6.99;100.00;102521.03;6249642;28;20508;-71
2022/05/09 05:32:55;;;;;;;2.15;1.20;;;;;;;7.04;100.00;102520.13;6250090;28;20052;-71
2022/05/09 05:35:57;;;;;;;6.03;1.40;;;;;;;7.13;100.00;102524.41;6250415;28;20049;-71
2022/05/09 05:38:58;;;;;;;2.90;1.38;;;;;;;7.22;100.00;102529.53;6250131;28;20060;-70
2022/05/09 05:42:00;;;;;;;2.97;1.60;;;;;;;7.30;100.00;102532.91;6249044;28;20052;-71
2022/05/09 05:45:02;;;;;;;1.65;0.90;;;;;;;7.38;100.00;102538.06;6250151;28;20524;-71
2022/05/09 05:48:03;;;;;;;1.08;0.80;;;;;;;7.46;100.00;102538.84;6249733;28;20056;-71
2022/05/09 05:51:05;;;;;;;1.83;0.77;;;;;;;7.54;100.00;102534.41;6249512;28;20049;-71
2022/05/09 05:54:06;;;;;;;2.00;0.93;;;;;;;7.65;100.00;102536.00;6249765;28;20053;-71
2022/05/09 05:57:17;;;;;;;2.15;1.00;;;;;;;7.73;100.00;102540.28;6249544;28;20049;-72
2022/05/09 06:00:21;;;;;;;5.82;1.08;;;;;;;7.79;100.00;102545.41;6248616;28;20485;-71
2022/05/09 06:03:23;;;;;;;6.65;1.55;;;;;;;7.86;100.00;102540.97;6249188;28;20072;-71
2022/05/09 06:06:24;;;;;;;3.03;1.35;;;;;;;7.97;100.00;102543.44;6249433;28;20049;-71
2022/05/09 06:09:25;;;;;;;1.90;1.20;;;;;;;8.06;100.00;102543.31;6249250;28;20050;-74
2022/05/09 06:12:28;;;;;;;6.00;2.95;;;;;;;8.14;100.00;102538.84;6248808;28;20493;-71
2022/05/09 06:15:32;;;;;;;5.28;1.80;;;;;;;8.26;100.00;102546.50;6249075;28;20512;-71
2022/05/09 06:18:33;;;;;;;3.67;1.52;;;;;;;8.38;100.00;102532.41;6248424;28;20045;-71
2022/05/09 06:21:35;;;;;;;2.75;1.42;;;;;;;8.49;100.00;102532.22;6244630;28;20053;-71
2022/05/09 06:24:37;;;;;;;5.45;1.42;;;;;;;8.61;100.00;102543.38;6248794;28;20493;-71
2022/05/09 06:27:40;;;;;;;3.53;1.65;;;;;;;8.68;100.00;102544.16;6248924;28;20053;-71
2022/05/09 06:30:42;;;;;;;2.13;1.20;;;;;;;8.78;100.00;102547.50;6247896;28;20187;-71
2022/05/09 06:33:44;;;;;;;2.70;0.90;;;;;;;8.90;100.00;102547.25;6248593;28;20053;-70
2022/05/09 06:36:45;;;;;;;2.33;1.25;;;;;;;8.98;100.00;102545.38;6248081;28;20052;-71
2022/05/09 06:39:46;;;;;;;1.02;0.73;;;;;;;9.03;100.00;102534.78;6248312;28;20041;-72
2022/05/09 06:42:51;;;;;;;2.25;1.05;;;;;;;9.11;100.00;102543.41;6247846;28;20069;-71
2022/05/09 06:45:52;;;;;;;2.80;1.08;;;;;;;9.21;100.00;102533.59;6248613;28;20060;-71
2022/05/09 06:48:53;;;;;;;3.63;1.00;;;;;;;9.35;100.00;102544.69;6248222;28;20057;-71
2022/05/09 06:51:55;;;;;;;5.22;1.83;;;;;;;9.44;100.00;102536.63;6247016;28;20045;-71
2022/05/09 06:54:56;;;;;;;3.08;1.35;;;;;;;9.55;100.00;102541.69;6248356;28;20056;-71
2022/05/09 06:57:59;;;;;;;6.13;1.55;;;;;;;9.72;100.00;102531.72;6248279;28;20052;-72
2022/05/09 07:01:00;;;;;;;4.70;1.50;;;;;;;9.83;100.00;102534.09;6247407;28;20045;-71
2022/05/09 07:04:02;;;;;;;4.72;1.95;;;;;;;9.90;100.00;102526.06;6248246;28;20076;-71
2022/05/09 07:07:03;;;;;;;5.82;1.40;;;;;;;9.99;100.00;102529.34;6248098;28;20512;-71
2022/05/09 07:10:06;;;;;;;2.15;1.08;;;;;;;10.13;100.00;102536.06;6242461;28;20494;-71
2022/05/09 07:13:09;;;;;;;1.55;1.05;;;;;;;10.25;100.00;102532.28;6247246;28;20054;-72
2022/05/09 07:16:11;;;;;;;3.63;1.00;;;;;;;10.34;100.00;102525.97;6246696;28;20045;-71
2022/05/09 07:19:13;;;;;;;3.75;1.27;;;;;;;10.39;100.00;102530.19;6247104;28;20056;-71
2022/05/09 07:22:15;;;;;;;2.47;0.98;;;;;;;10.48;100.00;102536.13;6246442;28;20052;-71
2022/05/09 07:25:17;;;;;;;3.40;1.75;;;;;;;10.58;100.00;102538.53;6247694;28;20533;-70
2022/05/09 07:28:21;;;;;;;4.50;1.17;;;;;;;10.74;100.00;102533.75;6247213;28;20053;-70
2022/05/09 07:31:22;;;;;;;4.60;1.33;;;;;;;10.84;100.00;102542.25;6246577;28;20160;-71
2022/05/09 07:34:24;;;;;;;4.80;1.40;;;;;;;10.95;100.00;102531.47;6247353;28;20056;-72
2022/05/09 07:37:25;;;;;;;5.07;1.70;;;;;;;11.13;100.00;102533.63;6247414;28;20055;-71
2022/05/09 07:40:26;;;;;;;3.00;1.30;;;;;;;11.22;100.00;102530.72;6246655;28;20416;-70
2022/05/09 07:43:30;;;;;;;4.63;1.40;;;;;;;11.27;100.00;102526.19;6246520;28;20049;-71
2022/05/09 07:46:32;;;;;;;4.68;1.50;;;;;;;11.36;100.00;102531.22;6246848;28;20129;-71
2022/05/09 07:49:33;;;;;;;2.90;1.00;;;;;;;11.53;99.74;102525.44;6246359;28;20045;-71
2022/05/09 07:52:34;;;;;;;7.75;1.30;;;;;;;11.60;100.00;102528.78;6246484;28;20068;-70
2022/05/09 07:55:36;;;;;;;2.42;1.30;;;;;;;11.69;99.81;102524.09;6246790;28;20053;-70
2022/05/09 07:58:39;;;;;;;4.45;1.15;;;;;;;11.80;99.59;102529.03;6246939;28;20496;-70
2022/05/09 08:01:40;;;;;;;5.88;1.25;;;;;;;11.89;100.00;102531.44;6245949;28;20046;-71
2022/05/09 08:04:42;;;;;;;3.72;1.13;;;;;;;12.04;99.52;102524.84;6246994;28;20050;-71
2022/05/09 08:07:43;;;;;;;2.80;1.30;;;;;;;12.08;99.96;102525.59;6246433;28;20053;-72
2022/05/09 08:10:45;;;;;;;3.40;1.65;;;;;;;12.15;100.00;102520.09;6246135;28;20116;-71
2022/05/09 08:13:48;;;;;;;2.90;1.27;;;;;;;12.37;95.93;102522.06;6246843;28;20045;-71
2022/05/09 08:16:49;;;;;;;5.68;2.08;;;;;;;12.47;98.16;102519.97;6246232;28;20053;-71
2022/05/09 08:19:55;;;;;;;4.72;1.20;;;;;;;12.56;97.75;102527.59;6245857;28;20053;-71
2022/05/09 08:23:00;;;;;;;2.75;1.60;;;;;;;12.67;95.87;102525.44;6245604;28;20053;-70
2022/05/09 08:26:03;;;;;;;4.30;1.60;;;;;;;12.81;92.73;102520.59;6246508;28;20060;-71
2022/05/09 08:29:07;;;;;;;4.88;1.38;;;;;;;12.95;91.72;102517.47;6246119;28;20054;-72
2022/05/09 08:32:08;;;;;;;4.43;1.15;;;;;;;13.03;90.98;102514.53;6245737;28;20199;-72
2022/05/09 08:35:10;;;;;;;4.70;1.33;;;;;;;13.11;89.08;102512.50;6246449;28;20056;-71
2022/05/09 08:38:12;;;;;;;3.05;1.40;;;;;;;13.21;89.28;102511.25;6246187;28;20057;-71
2022/05/09 08:41:14;;;;;;;3.35;1.25;;;;;;;13.34;88.17;102511.69;6245546;28;20045;-71
2022/05/09 08:44:27;;;;;;;2.03;0.93;;;;;;;13.44;87.96;102503.41;6246279;28;20045;-72
2022/05/09 08:47:50;;;;;;;2.38;0.90;;;;;;;13.71;80.92;102495.31;6246117;28;20199;-71
2022/05/09 08:51:03;;;;;;;3.85;1.27;;;;;;;13.78;82.82;102501.25;6245153;28;20053;-71
2022/05/09 08:54:09;;;;;;;3.67;1.23;;;;;;;14.03;77.50;102507.28;6245239;28;20054;-71
2022/05/09 08:57:16;;;;;;;2.30;1.00;;;;;;;14.08;78.33;102507.97;6244917;28;20045;-71
2022/05/09 09:00:21;;;;;;;5.80;0.98;;;;;;;14.13;76.46;102502.50;6243308;28;20489;-72
2022/05/09 09:03:29;;;;;;;1.13;0.70;;;;;;;14.23;75.97;102501.22;6244629;28;20063;-73
2022/05/09 09:06:56;;;;;;;4.00;1.40;;;;;;;14.43;72.76;102495.09;6244540;28;20672;-69
2022/05/09 09:10:09;;;;;;;3.85;1.20;;;;;;;14.54;72.37;102487.63;6245314;28;20068;-69
2022/05/09 09:13:25;;;;;;;1.17;1.08;;;;;;;14.60;73.36;102481.19;6243499;28;20050;-69
2022/05/09 09:16:51;;;;;;;3.13;0.90;;;;;;;14.74;71.65;102477.97;6248913;28;20045;-71
2022/05/09 09:20:14;;;;;;;5.70;1.55;;;;;;;14.88;65.39;102479.06;6249109;28;20437;-71
2022/05/09 09:23:30;;;;;;;5.43;1.83;;;;;;;14.94;65.50;102472.66;6249685;28;20056;-71
2022/05/09 09:26:36;;;;;;;1.33;0.70;;;;;;;15.13;63.67;102475.38;6250248;28;20057;-72
2022/05/09 09:29:46;;;;;;;4.13;1.15;;;;;;;15.31;62.34;102471.03;6250130;28;20073;-72
2022/05/09 09:32:54;;;;;;;1.33;0.80;;;;;;;15.46;62.29;102460.56;6249815;28;20045;-71
2022/05/09 09:35:59;;;;;;;3.67;1.10;;;;;;;15.48;65.20;102461.34;6250100;28;20057;-72
2022/05/09 09:39:07;;;;;;;2.10;0.95;;;;;;;15.69;59.96;102458.66;6249537;28;20056;-71
2022/05/09 09:42:09;;;;;;;1.50;1.07;;;;;;;15.83;58.99;102456.22;6248853;28;20049;-71
2022/05/09 09:45:26;;;;;;;1.50;0.85;;;;;;;15.93;61.21;102448.66;6250022;28;20284;-71
2022/05/09 09:48:30;;;;;;;2.97;0.90;;;;;;;16.14;60.79;102449.41;6249166;28;20047;-72
2022/05/09 09:51:32;;;;;;;2.40;1.00;;;;;;;16.17;53.64;102451.94;6249237;28;20050;-72
2022/05/09 09:54:35;;;;;;;3.90;0.93;;;;;;;16.30;51.09;102452.16;6246537;28;20057;-71
2022/05/09 09:57:38;;;;;;;1.10;0.70;;;;;;;16.31;50.94;102440.63;6246117;28;20136;-72
2022/05/09 10:00:39;;;;;;;1.88;1.08;;;;;;;16.37;50.61;102443.81;6248638;28;20405;-72
2022/05/09 10:03:44;;;;;;;1.65;0.65;;;;;;;16.37;50.55;102437.66;6249686;28;20060;-72
2022/05/09 10:06:58;;;;;;;5.22;0.80;;;;;;;16.44;52.67;102426.66;6249299;28;20049;-72
2022/05/09 10:10:07;;;;;;;3.70;0.60;;;;;;;16.48;54.63;102425.53;6249158;28;20144;-72
2022/05/09 10:13:21;;;;;;;2.30;0.95;;;;;;;16.69;50.37;102420.94;6247903;28;20046;-72
2022/05/09 10:16:27;;;;;;;3.78;1.10;;;;;;;16.91;50.20;102415.38;6248020;28;20136;-73
2022/05/09 10:19:31;;;;;;;6.20;1.20;;;;;;;16.91;49.17;102415.38;6248436;28;20413;-73
2022/05/09 10:26:03;;;;;;;1.73;1.00;;;;;;;17.21;48.30;102412.88;6247797;28;20049;-70
2022/05/09 10:29:14;;;;;;;3.22;1.10;;;;;;;17.24;47.93;102407.38;6249118;28;20054;-69
2022/05/09 10:32:20;;;;;;;1.77;0.95;;;;;;;17.33;48.52;102407.81;6247862;28;20479;-71
2022/05/09 10:35:25;;;;;;;2.67;0.95;;;;;;;17.42;48.94;102394.00;6248758;28;20052;-71
2022/05/09 10:38:36;;;;;;;2.05;0.82;;;;;;;17.45;46.75;102391.19;6248399;28;20057;-70
2022/05/09 10:41:42;;;;;;;2.13;1.05;;;;;;;17.85;48.67;102383.63;6246871;28;20049;-73
2022/05/09 10:44:49;;;;;;;1.30;0.68;;;;;;;17.89;48.85;102399.31;6248309;28;20053;-70
2022/05/09 10:47:55;;;;;;;6.22;1.08;;;;;;;17.94;48.19;102383.97;6246049;28;20049;-70
2022/05/09 10:51:03;;;;;;;2.28;0.65;;;;;;;18.05;48.61;102379.81;6245761;28;20068;-69
2022/05/09 10:54:09;;;;;;;5.90;1.10;;;;;;;18.25;47.95;102376.81;6246157;28;20041;-70
2022/05/09 10:57:18;;;;;;;1.17;0.70;;;;;;;18.56;48.33;102374.97;6245766;28;20460;-69
2022/05/09 11:00:23;;;;;;;4.72;0.98;;;;;;;18.94;45.15;102368.19;6245941;28;20057;-70
2022/05/09 11:03:34;;;;;;;1.45;0.93;;;;;;;19.10;44.54;102372.53;6247759;28;20050;-70
2022/05/09 11:06:49;;;;;;;2.83;0.93;;;;;;;19.32;43.73;102364.03;6247239;28;20136;-69
2022/05/09 11:10:07;;;;;;;9.23;0.90;;;;;;;19.54;46.15;102356.34;6247316;28;20437;-69
2022/05/09 11:13:26;;;;;;;1.90;1.30;;;;;;;19.65;47.15;102347.66;6247544;28;20052;-70
2022/05/09 11:16:37;;;;;;;2.42;1.02;;;;;;;19.78;45.75;102353.88;6245481;28;20425;-69
2022/05/09 11:19:57;;;;;;;3.08;1.00;;;;;;;20.15;42.25;102349.59;6243072;28;20045;-70
2022/05/09 11:23:13;;;;;;;2.25;0.40;;;;;;;20.48;41.04;102350.91;6247293;28;20049;-70
2022/05/09 11:26:25;;;;;;;1.42;0.90;;;;;;;21.05;39.74;102355.78;6247321;28;20060;-70
2022/05/09 11:29:51;;;;;;;6.38;1.30;;;;;;;22.56;37.64;102343.53;6223251;28;20049;-70
2022/05/09 11:33:04;;;;;;;1.55;0.70;;;;;;;23.94;34.06;102338.56;6222755;28;20048;-70
2022/05/09 11:36:18;;;;;;;1.73;0.60;;;;;;;24.94;30.85;102333.44;6222469;28;20065;-70
2022/05/09 11:39:34;;;;;;;1.95;0.80;;;;;;;26.70;30.32;102330.53;6223232;28;20057;-68
2022/05/09 11:46:38;;;;;;;1.73;0.50;;;;;;;28.16;24.60;102319.56;6229617;28;20053;-69
2022/05/09 11:50:04;;;;;;;1.40;0.93;;;;;;;28.60;24.08;102313.22;6247300;28;20493;-69
2022/05/09 11:53:08;;;;;;;2.20;0.50;;;;;;;28.68;25.70;102299.75;6246487;28;20046;-69
2022/05/09 11:56:11;;;;;;;0.40;0.40;;;;;;;29.91;23.55;102298.09;6247168;28;20057;-68
2022/05/09 11:59:21;;;;;;;0.70;0.60;;;;;;;29.54;25.48;102296.75;6246829;28;20505;-67
2022/05/09 12:02:44;;;;;;;0.93;0.40;;;;;;;29.62;23.70;102293.22;6246619;28;20413;-68
2022/05/09 12:06:01;;;;;;;1.08;0.60;;;;;;;29.73;23.83;102292.88;6246789;28;20140;-69
2022/05/09 12:09:08;;;;;;;1.13;0.67;;;;;;;29.00;25.14;102294.47;6246848;28;20057;-69
2022/05/09 12:12:45;;;;;;;0.50;0.38;;;;;;;29.30;24.83;102292.16;6245932;28;20292;-69
2022/05/09 12:15:53;;;;;;;1.27;0.60;;;;;;;29.15;22.33;102282.97;6246197;28;20049;-68
2022/05/09 12:18:57;;;;;;;1.90;0.65;;;;;;;30.47;24.29;102282.72;6246148;28;20084;-70
2022/05/09 12:22:33;;;;;;;0.47;0.47;;;;;;;30.89;22.04;102267.97;6245807;28;20045;-69
2022/05/09 12:26:01;;;;;;;0.75;0.47;;;;;;;31.17;23.32;102261.00;6231885;28;20168;-69
2022/05/09 12:29:46;;;;;;;1.17;0.65;;;;;;;31.20;23.49;102260.63;6245421;28;20082;-69
2022/05/09 12:32:51;;;;;;;2.45;0.60;;;;;;;31.16;23.22;102259.31;6241561;28;20076;-69
2022/05/09 12:35:55;;;;;;;0.50;0.50;;;;;;;31.59;22.29;102256.94;6246417;28;20053;-68
2022/05/09 12:39:02;;;;;;;0.93;0.63;;;;;;;31.51;21.46;102246.13;6246285;28;20056;-69
2022/05/09 12:42:11;;;;;;;0.50;0.50;;;;;;;31.88;22.15;102252.59;6245401;28;20059;-68
2022/05/09 12:45:17;;;;;;;0.68;0.50;;;;;;;32.38;21.56;102240.16;6246346;28;20057;-68
2022/05/09 12:48:18;;;;;;;0.90;0.60;;;;;;;32.79;20.95;102241.31;6246952;28;20049;-68
2022/05/09 12:51:20;;;;;;;0.98;0.57;;;;;;;33.25;21.59;102231.94;6250322;28;20060;-68
2022/05/09 12:54:24;;;;;;;1.30;0.80;;;;;;;32.12;21.75;102227.88;6251304;28;20501;-68
2022/05/09 12:57:33;;;;;;;1.38;0.80;;;;;;;30.94;21.38;102220.25;6250836;28;20061;-69
2022/05/09 13:00:38;;;;;;;2.80;0.95;;;;;;;30.58;23.26;102225.34;6250641;28;20060;-69
2022/05/09 13:03:49;;;;;;;2.35;0.80;;;;;;;31.66;21.19;102222.56;6249949;28;20200;-69
2022/05/09 13:06:53;;;;;;;1.67;0.70;;;;;;;31.95;21.93;102207.31;6250950;28;20042;-69
2022/05/09 13:09:57;;;;;;;3.33;0.65;;;;;;;32.66;22.34;102208.47;6250071;28;20056;-67
2022/05/09 13:13:02;;;;;;;1.70;0.63;;;;;;;32.52;20.69;102203.91;6250343;28;20127;-68
2022/05/09 13:16:05;;;;;;;1.40;0.77;;;;;;;33.49;19.56;102198.00;6250002;28;20053;-68
2022/05/09 13:19:07;;;;;;;1.00;0.68;;;;;;;34.30;19.66;102195.53;6250626;28;20512;-68
2022/05/09 13:22:10;;;;;;;1.85;0.88;;;;;;;33.66;19.42;102185.75;6249881;28;20050;-69
2022/05/09 13:25:17;;;;;;;4.18;0.60;;;;;;;33.35;19.44;102193.44;6250044;28;20055;-68
2022/05/09 13:28:22;;;;;;;2.03;1.52;;;;;;;34.05;19.54;102190.59;6250455;28;20060;-67
2022/05/09 13:31:32;;;;;;;1.40;0.70;;;;;;;34.40;18.98;102195.16;6249758;28;20056;-69
2022/05/09 13:34:41;;;;;;;1.17;0.70;;;;;;;34.46;18.52;102188.88;6250119;28;20045;-69
2022/05/09 13:37:43;;;;;;;2.10;0.63;;;;;;;33.03;19.61;102180.19;6250013;28;20089;-69
2022/05/09 13:40:45;;;;;;;2.25;0.77;;;;;;;32.78;21.61;102173.41;6249445;28;20513;-69
2022/05/09 13:43:50;;;;;;;0.70;0.52;;;;;;;33.43;19.87;102171.47;6250259;28;20073;-68
2022/05/09 13:46:57;;;;;;;1.10;0.40;;;;;;;33.79;18.51;102169.47;6237497;28;20066;-68
2022/05/09 13:50:01;;;;;;;1.33;0.60;;;;;;;34.19;19.38;102164.19;6225172;28;20076;-68
2022/05/09 13:53:05;;;;;;;1.25;0.60;;;;;;;34.24;19.40;102155.41;6225013;28;20506;-68
2022/05/09 13:56:09;;;;;;;0.85;0.70;;;;;;;34.41;17.51;102154.00;6224877;28;20053;-68
2022/05/09 13:59:12;;;;;;;2.92;0.90;;;;;;;34.36;18.42;102155.66;6225144;28;20050;-68
2022/05/09 14:02:16;;;;;;;1.55;0.70;;;;;;;33.63;20.38;102150.69;6224209;28;20057;-68
2022/05/09 14:05:21;;;;;;;0.85;0.57;;;;;;;32.13;21.73;102150.66;6236991;28;20054;-69
2022/05/09 14:08:24;;;;;;;5.75;0.75;;;;;;;31.53;20.88;102147.09;6273746;28;20049;-68
2022/05/09 14:11:32;;;;;;;1.50;0.68;;;;;;;32.78;19.95;102140.72;6245004;28;20053;-67
2022/05/09 14:14:36;;;;;;;0.60;0.60;;;;;;;34.65;19.40;102138.09;6248889;28;20053;-68
2022/05/09 14:17:43;;;;;;;0.70;0.70;;;;;;;34.56;19.43;102132.84;6224499;28;20050;-68
2022/05/09 14:20:44;;;;;;;2.42;0.73;;;;;;;35.06;18.75;102135.22;6248146;28;20056;-67
2022/05/09 14:23:47;;;;;;;0.77;0.60;;;;;;;34.45;19.51;102119.78;6249305;28;20722;-68
2022/05/09 14:30:13;;;;;;;1.88;0.95;;;;;;;31.15;24.16;102113.63;6247621;28;20507;-75
2022/05/09 14:33:35;;;;;;;0.80;0.60;;;;;;;29.17;26.46;102111.22;6247102;28;20046;-74
2022/05/09 14:36:37;;;;;;;1.27;0.93;;;;;;;28.09;26.98;102104.09;6247017;28;20050;-74